Puntzi Mountain, Canada
Current Conditions -  °F | °C
As of 12:00 PM on Sunday 23 Nov 2014 (Local Time) from CYWL Reporting Station
Broken Clouds Broken Clouds  
Wind Chill: 30°   Ceiling: 9000
Heat Index: 34°   Visibility: 15mi
Dew Point: 27°   Wind: 5mph
Humidity: 75%   Direction: 110°ESE
Pressure: 29.75"   Gusts: NA
Location:  52.12°N, 124.13°W
Report Text: CYWL 232000Z 11004KT 15SM BKN090 BKN140 BKN220 01/M03 A2975 RMK AC5AC1CI1 SLP111
Loading
Personal Weather Stations






























Interactive Weather Map New forecast layout! Learn more

10-Day Weather Forecast

Advertisements
Track Severe Weather on mobile